createdAt,value
2022-09-18T00:03:41.335Z,95253.75
2022-09-18T00:07:23.980Z,95250.97
2022-09-18T00:11:08.557Z,95257.00
2022-09-18T00:14:51.313Z,95241.56
2022-09-18T00:18:35.612Z,95248.16
2022-09-18T00:22:18.499Z,95248.22
2022-09-18T00:26:01.136Z,95253.66
2022-09-18T00:29:44.612Z,95259.88
2022-09-18T00:33:27.282Z,95260.59
2022-09-18T00:37:11.295Z,95259.88
2022-09-18T00:40:53.963Z,95256.25
2022-09-18T00:44:43.048Z,95264.47
2022-09-18T00:48:29.360Z,95262.31
2022-09-18T00:52:14.858Z,95261.22
2022-09-18T00:55:58.781Z,95267.09
2022-09-18T00:59:46.934Z,95260.25
2022-09-18T01:03:30.115Z,95258.25
2022-09-18T01:07:19.732Z,95272.69
2022-09-18T01:11:12.818Z,95273.94
2022-09-18T01:15:01.248Z,95277.06
2022-09-18T01:18:48.477Z,95274.47
2022-09-18T01:22:46.078Z,95281.31
2022-09-18T01:26:39.977Z,95282.94
2022-09-18T01:30:24.007Z,95286.97
2022-09-18T01:34:12.042Z,95284.91
2022-09-18T01:37:57.152Z,95283.00
2022-09-18T01:41:41.728Z,95270.84
2022-09-18T01:45:28.899Z,95278.56
2022-09-18T01:49:14.011Z,95267.50
2022-09-18T01:53:01.196Z,95282.63
2022-09-18T01:56:47.473Z,95275.34
2022-09-18T02:00:31.772Z,95269.72
2022-09-18T02:04:17.536Z,95264.13
2022-09-18T02:08:07.795Z,95267.41
2022-09-18T02:11:52.418Z,95276.50
2022-09-18T02:15:39.312Z,95262.66
2022-09-18T02:19:27.876Z,95268.78
2022-09-18T02:23:11.212Z,95254.63
2022-09-18T02:26:54.866Z,95260.66
2022-09-18T02:30:40.431Z,95256.25
2022-09-18T02:34:23.163Z,95251.81
2022-09-18T02:38:11.219Z,95255.06
2022-09-18T02:42:00.178Z,95261.91
2022-09-18T02:45:49.948Z,95266.78
2022-09-18T02:49:42.664Z,95250.31
2022-09-18T02:53:29.249Z,95245.69
2022-09-18T02:57:15.301Z,95241.91
2022-09-18T03:01:02.875Z,95251.94
2022-09-18T03:04:45.624Z,95235.41
2022-09-18T03:08:28.314Z,95231.63
2022-09-18T03:12:11.277Z,95240.34
2022-09-18T03:15:55.866Z,95240.94
2022-09-18T03:19:39.909Z,95254.03
2022-09-18T03:23:23.685Z,95246.44
2022-09-18T03:27:06.941Z,95253.91
2022-09-18T03:30:49.909Z,95237.56
2022-09-18T03:34:32.537Z,95251.34
2022-09-18T03:38:16.883Z,95252.53
2022-09-18T03:42:02.323Z,95243.66
2022-09-18T03:45:44.956Z,95248.19
2022-09-18T03:49:27.600Z,95246.53
2022-09-18T03:53:10.268Z,95247.72
2022-09-18T03:56:54.383Z,95255.38
2022-09-18T04:00:37.176Z,95246.91
2022-09-18T04:04:19.853Z,95253.53
2022-09-18T04:08:02.892Z,95249.28
2022-09-18T04:11:45.588Z,95241.28
2022-09-18T04:15:29.721Z,95252.56
2022-09-18T04:19:12.472Z,95239.66
2022-09-18T04:22:55.105Z,95259.81
2022-09-18T04:26:38.044Z,95242.56
2022-09-18T04:30:20.725Z,95255.78
2022-09-18T04:34:06.056Z,95256.16
2022-09-18T04:37:48.780Z,95248.03
2022-09-18T04:41:31.492Z,95252.34
2022-09-18T04:45:14.157Z,95253.16
2022-09-18T04:48:56.812Z,95262.25
2022-09-18T04:52:40.819Z,95247.78
2022-09-18T04:56:23.543Z,95260.72
2022-09-18T05:00:07.950Z,95234.13
2022-09-18T05:03:51.020Z,95252.03
2022-09-18T05:07:33.715Z,95265.94
2022-09-18T05:11:17.795Z,95278.41
2022-09-18T05:15:00.426Z,95279.22
2022-09-18T05:18:43.050Z,95273.00
2022-09-18T05:22:25.749Z,95280.47
2022-09-18T05:26:08.425Z,95273.03
2022-09-18T05:29:52.440Z,95275.66
2022-09-18T05:33:36.255Z,95272.72
2022-09-18T05:37:19.449Z,95259.88
2022-09-18T05:41:05.355Z,95291.94
2022-09-18T05:44:47.977Z,95274.22
2022-09-18T05:48:32.116Z,95271.81
2022-09-18T05:52:16.791Z,95285.50
2022-09-18T05:56:00.361Z,95285.16
2022-09-18T05:59:42.999Z,95284.94
2022-09-18T06:03:25.743Z,95288.16
2022-09-18T06:07:10.087Z,95284.34
2022-09-18T06:10:54.653Z,95284.78
2022-09-18T06:14:37.447Z,95295.25
2022-09-18T06:18:20.117Z,95292.03
2022-09-18T06:22:02.736Z,95303.75
2022-09-18T06:25:46.897Z,95295.50
2022-09-18T06:29:29.561Z,95300.97
2022-09-18T06:33:12.225Z,95282.63
2022-09-18T06:36:56.336Z,95296.81
2022-09-18T06:40:39.019Z,95293.38
2022-09-18T06:44:23.127Z,95307.44
2022-09-18T06:48:12.133Z,95316.69
2022-09-18T06:51:55.644Z,95335.31
2022-09-18T06:55:41.038Z,95304.84
2022-09-18T06:59:25.036Z,95302.38
2022-09-18T07:03:07.700Z,95294.13
2022-09-18T07:06:50.339Z,95314.50
2022-09-18T07:10:33.225Z,95306.41
2022-09-18T07:14:15.920Z,95314.22
2022-09-18T07:18:00.974Z,95298.50
2022-09-18T07:21:43.628Z,95310.22
2022-09-18T07:25:27.222Z,95319.50
2022-09-18T07:29:10.338Z,95323.34
2022-09-18T07:32:53.032Z,95323.44
2022-09-18T07:36:37.098Z,95331.94
2022-09-18T07:40:19.825Z,95332.88
2022-09-18T07:44:03.279Z,95319.72
2022-09-18T07:47:45.922Z,95328.44
2022-09-18T07:51:28.973Z,95312.34
2022-09-18T07:55:12.994Z,95340.81
2022-09-18T07:58:55.667Z,95328.13
2022-09-18T08:02:38.403Z,95318.44
2022-09-18T08:06:21.209Z,95333.97
2022-09-18T08:10:04.115Z,95327.34
2022-09-18T08:13:50.342Z,95344.31
2022-09-18T08:17:33.015Z,95321.09
2022-09-18T08:21:15.949Z,95328.53
2022-09-18T08:24:58.657Z,95337.88
2022-09-18T08:28:41.354Z,95337.88
2022-09-18T08:32:25.395Z,95363.28
2022-09-18T08:36:08.725Z,95340.13
2022-09-18T08:39:51.575Z,95339.16
2022-09-18T08:43:48.757Z,95331.91
2022-09-18T08:47:37.427Z,95320.66
2022-09-18T08:51:23.647Z,95336.63
2022-09-18T08:55:10.826Z,95335.19
2022-09-18T08:58:56.972Z,95330.63
2022-09-18T09:02:45.277Z,95330.03
2022-09-18T09:06:39.271Z,95343.00
2022-09-18T09:10:35.218Z,95347.47
2022-09-18T09:14:57.135Z,95344.06
2022-09-18T09:18:53.483Z,95357.22
2022-09-18T09:22:42.083Z,95327.34
2022-09-18T09:26:24.779Z,95329.38
2022-09-18T09:30:13.843Z,95348.75
2022-09-18T09:34:01.052Z,95329.16
2022-09-18T09:37:45.735Z,95331.03
2022-09-18T09:41:31.771Z,95355.66
2022-09-18T09:45:17.126Z,95317.06
2022-09-18T09:49:08.531Z,95340.53
2022-09-18T09:52:52.632Z,95326.63
2022-09-18T09:56:40.717Z,95340.34
2022-09-18T10:00:25.923Z,95331.06
2022-09-18T10:04:26.248Z,95343.19
2022-09-18T10:08:13.191Z,95337.13
2022-09-18T10:12:04.650Z,95336.31
2022-09-18T10:15:49.020Z,95321.78
2022-09-18T10:19:37.553Z,95342.41
2022-09-18T10:23:28.814Z,95342.84
2022-09-18T10:27:15.944Z,95340.41
2022-09-18T10:31:00.752Z,95343.44
2022-09-18T10:34:47.487Z,95340.84
2022-09-18T10:38:33.457Z,95342.47
2022-09-18T10:42:18.271Z,95339.63
2022-09-18T10:46:01.538Z,95360.47
2022-09-18T10:49:51.915Z,95340.44
2022-09-18T10:53:37.985Z,95357.25
2022-09-18T10:57:28.275Z,95343.06
2022-09-18T11:01:13.143Z,95324.66
2022-09-18T11:04:57.627Z,95339.44
2022-09-18T11:08:45.083Z,95336.19
2022-09-18T11:12:28.042Z,95335.59
2022-09-18T11:16:10.801Z,95313.75
2022-09-18T11:19:55.650Z,95338.41
2022-09-18T11:23:43.050Z,95318.59
2022-09-18T11:27:27.806Z,95322.84
2022-09-18T11:31:14.689Z,95321.81
2022-09-18T11:34:58.850Z,95323.19
2022-09-18T11:38:44.707Z,95309.03
2022-09-18T11:42:30.082Z,95315.28
2022-09-18T11:46:18.931Z,95308.03
2022-09-18T11:50:15.046Z,95298.28
2022-09-18T11:54:06.934Z,95300.31
2022-09-18T11:57:52.183Z,95297.84
2022-09-18T12:01:39.120Z,95311.03
2022-09-18T12:05:25.065Z,95315.28
2022-09-18T12:09:14.905Z,95305.63
2022-09-18T12:13:18.578Z,95329.94
2022-09-18T12:17:09.045Z,95321.00
2022-09-18T12:20:55.399Z,95313.94
2022-09-18T12:24:39.407Z,95325.84
2022-09-18T12:28:28.822Z,95312.88
2022-09-18T12:32:25.144Z,95320.38
2022-09-18T12:36:43.443Z,95316.13
2022-09-18T12:40:47.178Z,95300.78
2022-09-18T12:44:52.350Z,95308.88
2022-09-18T12:48:57.862Z,95321.81
2022-09-18T12:53:06.528Z,95305.25
2022-09-18T12:57:02.213Z,95314.91
2022-09-18T13:00:46.720Z,95309.44
2022-09-18T13:04:31.985Z,95304.78
2022-09-18T13:08:18.577Z,95297.88
2022-09-18T13:12:04.996Z,95276.91
2022-09-18T13:15:50.340Z,95275.91
2022-09-18T13:19:36.609Z,95271.69
2022-09-18T13:23:21.450Z,95280.38
2022-09-18T13:27:09.502Z,95285.81
2022-09-18T13:31:18.257Z,95268.00
2022-09-18T13:35:02.545Z,95272.81
2022-09-18T13:38:46.946Z,95254.78
2022-09-18T13:42:34.413Z,95254.13
2022-09-18T13:46:34.238Z,95248.38
2022-09-18T13:50:18.658Z,95238.50
2022-09-18T13:54:21.669Z,95233.31
2022-09-18T13:58:40.766Z,95240.97
2022-09-18T14:02:27.989Z,95249.31
2022-09-18T14:06:45.319Z,95250.84
2022-09-18T14:10:33.845Z,95238.31
2022-09-18T14:14:20.266Z,95231.47
2022-09-18T14:18:14.441Z,95233.94
2022-09-18T14:21:57.344Z,95234.75
2022-09-18T14:25:49.836Z,95233.63
2022-09-18T14:29:35.301Z,95238.94
2022-09-18T14:33:20.619Z,95228.59
2022-09-18T14:37:17.226Z,95211.19
2022-09-18T14:41:08.918Z,95210.59
2022-09-18T14:44:54.370Z,95203.88
2022-09-18T14:48:39.063Z,95195.66
2022-09-18T14:52:24.195Z,95193.28
2022-09-18T14:56:09.296Z,95196.94
2022-09-18T14:59:53.635Z,95198.97
2022-09-18T15:03:41.192Z,95197.94
2022-09-18T15:07:24.332Z,95179.84
2022-09-18T15:11:08.962Z,95188.78
2022-09-18T15:14:52.074Z,95185.72
2022-09-18T15:18:42.901Z,95182.31
2022-09-18T15:22:25.805Z,95183.94
2022-09-18T15:26:12.201Z,95175.44
2022-09-18T15:30:01.054Z,95183.94
2022-09-18T15:33:51.838Z,95170.75
2022-09-18T15:37:38.137Z,95173.44
2022-09-18T15:41:30.970Z,95172.97
2022-09-18T15:45:21.596Z,95188.00
2022-09-18T15:49:28.609Z,95179.13
2022-09-18T15:53:28.646Z,95170.44
2022-09-18T15:57:15.344Z,95162.78
2022-09-18T16:01:02.238Z,95169.06
2022-09-18T16:04:46.369Z,95166.69
2022-09-18T16:08:31.045Z,95159.81
2022-09-18T16:12:36.465Z,95164.28
2022-09-18T16:16:26.744Z,95164.22
2022-09-18T16:20:34.118Z,95157.00
2022-09-18T16:24:20.816Z,95155.34
2022-09-18T16:28:06.534Z,95151.47
2022-09-18T16:31:49.495Z,95147.22
2022-09-18T16:35:33.575Z,95151.72
2022-09-18T16:39:19.336Z,95142.84
2022-09-18T16:43:03.078Z,95142.06
2022-09-18T16:46:50.749Z,95139.22
2022-09-18T16:50:34.813Z,95120.63
2022-09-18T16:54:17.490Z,95134.41
2022-09-18T16:58:00.902Z,95130.38
2022-09-18T17:02:02.984Z,95136.84
2022-09-18T17:05:48.187Z,95123.50
2022-09-18T17:09:32.632Z,95137.25
2022-09-18T17:13:15.467Z,95128.75
2022-09-18T17:16:58.283Z,95129.34
2022-09-18T17:20:41.060Z,95126.72
2022-09-18T17:24:27.566Z,95125.53
2022-09-18T17:28:14.386Z,95122.69
2022-09-18T17:31:57.755Z,95132.00
2022-09-18T17:35:40.466Z,95122.28
2022-09-18T17:39:25.546Z,95133.25
2022-09-18T17:43:10.198Z,95123.94
2022-09-18T17:46:53.601Z,95128.41
2022-09-18T17:50:36.299Z,95121.53
2022-09-18T17:54:19.108Z,95133.25
2022-09-18T17:58:01.754Z,95129.19
2022-09-18T18:01:46.303Z,95139.72
2022-09-18T18:05:29.464Z,95135.31
2022-09-18T18:09:12.145Z,95130.63
2022-09-18T18:12:55.528Z,95146.22
2022-09-18T18:16:41.130Z,95140.94
2022-09-18T18:20:25.561Z,95138.91
2022-09-18T18:24:13.175Z,95152.25
2022-09-18T18:27:56.176Z,95155.28
2022-09-18T18:31:39.724Z,95145.97
2022-09-18T18:35:22.415Z,95153.88
2022-09-18T18:39:09.842Z,95161.94
2022-09-18T18:42:52.583Z,95153.06
2022-09-18T18:46:37.404Z,95157.53
2022-09-18T18:50:21.813Z,95151.84
2022-09-18T18:54:06.681Z,95165.41
2022-09-18T18:57:49.327Z,95158.31
2022-09-18T19:01:32.695Z,95154.69
2022-09-18T19:05:16.329Z,95159.53
2022-09-18T19:09:00.405Z,95151.84
2022-09-18T19:12:45.053Z,95160.56
2022-09-18T19:16:28.863Z,95150.28
2022-09-18T19:20:11.761Z,95155.31
2022-09-18T19:23:56.378Z,95163.44
2022-09-18T19:27:41.625Z,95158.41
2022-09-18T19:31:26.720Z,95163.69
2022-09-18T19:35:09.578Z,95156.38
2022-09-18T19:38:52.948Z,95153.97
2022-09-18T19:42:35.999Z,95142.84
2022-09-18T19:46:22.681Z,95129.47
2022-09-18T19:50:07.959Z,95150.91
2022-09-18T19:53:50.668Z,95133.28
2022-09-18T19:57:33.329Z,95135.50
2022-09-18T20:01:16.034Z,95127.66
2022-09-18T20:04:58.716Z,95133.91
2022-09-18T20:08:42.710Z,95111.25
2022-09-18T20:12:25.440Z,95113.03
2022-09-18T20:16:10.177Z,95111.00
2022-09-18T20:19:56.026Z,95106.50
2022-09-18T20:23:39.076Z,95097.69
2022-09-18T20:27:24.636Z,95105.13
2022-09-18T20:31:08.861Z,95106.13
2022-09-18T20:34:51.584Z,95099.25
2022-09-18T20:38:38.369Z,95114.19
2022-09-18T20:42:23.350Z,95099.22
2022-09-18T20:46:11.521Z,95094.38
2022-09-18T20:49:54.311Z,95092.78
2022-09-18T20:53:38.334Z,95084.69
2022-09-18T20:57:21.207Z,95085.84
2022-09-18T21:01:13.185Z,95103.69
2022-09-18T21:04:55.998Z,95099.59
2022-09-18T21:08:42.977Z,95087.84
2022-09-18T21:12:25.620Z,95106.69
2022-09-18T21:16:09.810Z,95086.66
2022-09-18T21:19:58.201Z,95075.28
2022-09-18T21:24:01.462Z,95067.03
2022-09-18T21:27:44.177Z,95082.63
2022-09-18T21:31:28.522Z,95065.19
2022-09-18T21:35:11.194Z,95071.66
2022-09-18T21:38:55.079Z,95060.75
2022-09-18T21:42:47.498Z,95061.97
2022-09-18T21:46:31.648Z,95069.28
2022-09-18T21:50:17.641Z,95061.25
2022-09-18T21:54:00.318Z,95099.75
2022-09-18T21:57:43.044Z,95079.56
2022-09-18T22:01:32.082Z,95086.03
2022-09-18T22:05:17.844Z,95092.16
2022-09-18T22:09:03.899Z,95102.91
2022-09-18T22:12:46.587Z,95117.88
2022-09-18T22:16:34.392Z,95092.63
2022-09-18T22:20:18.740Z,95115.66
2022-09-18T22:24:06.253Z,95106.13
2022-09-18T22:27:48.925Z,95099.06
2022-09-18T22:31:31.794Z,95081.28
2022-09-18T22:35:14.589Z,95097.44
2022-09-18T22:39:00.530Z,95075.63
2022-09-18T22:42:43.166Z,95099.03
2022-09-18T22:46:26.931Z,95116.78
2022-09-18T22:50:09.925Z,95095.81
2022-09-18T22:53:56.238Z,95083.91
2022-09-18T22:57:40.257Z,95074.00
2022-09-18T23:01:25.040Z,95085.09
2022-09-18T23:05:08.538Z,95075.63
2022-09-18T23:08:51.194Z,95071.38
2022-09-18T23:12:33.935Z,95080.44
2022-09-18T23:16:21.271Z,95077.63
2022-09-18T23:20:04.365Z,95072.78
2022-09-18T23:23:48.372Z,95064.72
2022-09-18T23:27:31.008Z,95071.56
2022-09-18T23:31:15.639Z,95084.88
2022-09-18T23:34:59.663Z,95075.41
2022-09-18T23:38:42.776Z,95082.06
2022-09-18T23:42:26.613Z,95079.63
2022-09-18T23:46:09.293Z,95089.09
2022-09-18T23:49:51.982Z,95098.97
2022-09-18T23:53:38.213Z,95099.59
2022-09-18T23:57:28.256Z,95092.47
